sensor_id;sensor_type;location;lat;lon;timestamp;P1;durP1;ratioP1;P2;durP2;ratioP2
49824;SDS011;35714;55.708;37.478;2023-08-06T00:00:22;8.20;;;3.85;;
49824;SDS011;35714;55.708;37.478;2023-08-06T00:02:48;6.32;;;3.30;;
49824;SDS011;35714;55.708;37.478;2023-08-06T00:05:14;6.07;;;3.50;;
49824;SDS011;35714;55.708;37.478;2023-08-06T00:07:44;9.90;;;3.35;;
49824;SDS011;35714;55.708;37.478;2023-08-06T00:10:10;8.27;;;3.10;;
49824;SDS011;35714;55.708;37.478;2023-08-06T00:12:36;7.13;;;4.00;;
49824;SDS011;35714;55.708;37.478;2023-08-06T00:15:02;7.65;;;3.45;;
49824;SDS011;35714;55.708;37.478;2023-08-06T00:17:30;7.50;;;3.72;;
49824;SDS011;35714;55.708;37.478;2023-08-06T00:19:56;5.95;;;3.55;;
49824;SDS011;35714;55.708;37.478;2023-08-06T00:22:22;5.70;;;3.67;;
49824;SDS011;35714;55.708;37.478;2023-08-06T00:24:47;7.72;;;2.90;;
49824;SDS011;35714;55.708;37.478;2023-08-06T00:27:13;8.30;;;3.80;;
49824;SDS011;35714;55.708;37.478;2023-08-06T00:29:39;7.45;;;3.50;;
49824;SDS011;35714;55.708;37.478;2023-08-06T00:32:05;7.03;;;3.30;;
49824;SDS011;35714;55.708;37.478;2023-08-06T00:34:30;7.18;;;2.88;;
49824;SDS011;35714;55.708;37.478;2023-08-06T00:36:56;6.15;;;3.42;;
49824;SDS011;35714;55.708;37.478;2023-08-06T00:39:22;6.53;;;3.10;;
49824;SDS011;35714;55.708;37.478;2023-08-06T00:41:49;7.78;;;3.90;;
49824;SDS011;35714;55.708;37.478;2023-08-06T00:44:14;7.18;;;3.50;;
49824;SDS011;35714;55.708;37.478;2023-08-06T00:47:31;6.65;;;3.58;;
49824;SDS011;35714;55.708;37.478;2023-08-06T00:50:27;6.63;;;3.60;;
49824;SDS011;35714;55.708;37.478;2023-08-06T00:53:18;8.65;;;3.47;;
49824;SDS011;35714;55.708;37.478;2023-08-06T00:55:44;12.10;;;3.72;;
49824;SDS011;35714;55.708;37.478;2023-08-06T00:58:11;5.90;;;2.88;;
49824;SDS011;35714;55.708;37.478;2023-08-06T01:00:37;8.73;;;3.83;;
49824;SDS011;35714;55.708;37.478;2023-08-06T01:03:03;5.75;;;3.33;;
49824;SDS011;35714;55.708;37.478;2023-08-06T01:05:29;5.15;;;2.85;;
49824;SDS011;35714;55.708;37.478;2023-08-06T01:13:22;6.85;;;3.10;;
49824;SDS011;35714;55.708;37.478;2023-08-06T01:15:54;8.32;;;3.40;;
49824;SDS011;35714;55.708;37.478;2023-08-06T01:18:25;8.02;;;3.72;;
49824;SDS011;35714;55.708;37.478;2023-08-06T01:20:51;6.15;;;3.22;;
49824;SDS011;35714;55.708;37.478;2023-08-06T01:23:17;7.05;;;3.78;;
49824;SDS011;35714;55.708;37.478;2023-08-06T01:28:31;6.45;;;3.60;;
49824;SDS011;35714;55.708;37.478;2023-08-06T01:31:03;6.47;;;3.53;;
49824;SDS011;35714;55.708;37.478;2023-08-06T01:33:33;6.78;;;3.83;;
49824;SDS011;35714;55.708;37.478;2023-08-06T01:36:01;6.55;;;3.67;;
49824;SDS011;35714;55.708;37.478;2023-08-06T01:38:31;6.57;;;3.58;;
49824;SDS011;35714;55.708;37.478;2023-08-06T01:40:57;10.63;;;4.13;;
49824;SDS011;35714;55.708;37.478;2023-08-06T01:43:22;6.70;;;3.97;;
49824;SDS011;35714;55.708;37.478;2023-08-06T01:45:48;5.35;;;3.03;;
49824;SDS011;35714;55.708;37.478;2023-08-06T01:48:14;6.70;;;3.85;;
49824;SDS011;35714;55.708;37.478;2023-08-06T01:50:39;6.05;;;3.55;;
49824;SDS011;35714;55.708;37.478;2023-08-06T01:53:05;6.78;;;4.00;;
49824;SDS011;35714;55.708;37.478;2023-08-06T01:55:31;5.65;;;3.72;;
49824;SDS011;35714;55.708;37.478;2023-08-06T01:57:57;7.18;;;3.05;;
49824;SDS011;35714;55.708;37.478;2023-08-06T02:00:23;6.22;;;3.60;;
49824;SDS011;35714;55.708;37.478;2023-08-06T02:02:50;7.28;;;4.22;;
49824;SDS011;35714;55.708;37.478;2023-08-06T02:05:15;8.30;;;3.78;;
49824;SDS011;35714;55.708;37.478;2023-08-06T02:07:41;7.78;;;4.03;;
49824;SDS011;35714;55.708;37.478;2023-08-06T02:10:07;7.22;;;3.95;;
49824;SDS011;35714;55.708;37.478;2023-08-06T02:12:34;5.60;;;3.42;;
49824;SDS011;35714;55.708;37.478;2023-08-06T02:15:00;6.07;;;3.17;;
49824;SDS011;35714;55.708;37.478;2023-08-06T02:17:26;8.55;;;3.88;;
49824;SDS011;35714;55.708;37.478;2023-08-06T02:19:51;8.15;;;3.22;;
49824;SDS011;35714;55.708;37.478;2023-08-06T02:22:17;9.13;;;3.30;;
49824;SDS011;35714;55.708;37.478;2023-08-06T02:24:43;9.27;;;4.75;;
49824;SDS011;35714;55.708;37.478;2023-08-06T02:27:09;6.28;;;3.88;;
49824;SDS011;35714;55.708;37.478;2023-08-06T02:29:35;7.72;;;4.05;;
49824;SDS011;35714;55.708;37.478;2023-08-06T02:32:00;6.53;;;3.88;;
49824;SDS011;35714;55.708;37.478;2023-08-06T02:34:27;7.90;;;4.00;;
49824;SDS011;35714;55.708;37.478;2023-08-06T02:36:53;8.60;;;4.40;;
49824;SDS011;35714;55.708;37.478;2023-08-06T02:39:19;5.82;;;3.63;;
49824;SDS011;35714;55.708;37.478;2023-08-06T02:41:44;8.48;;;4.53;;
49824;SDS011;35714;55.708;37.478;2023-08-06T02:44:10;7.70;;;4.30;;
49824;SDS011;35714;55.708;37.478;2023-08-06T02:46:36;8.23;;;4.28;;
49824;SDS011;35714;55.708;37.478;2023-08-06T02:49:02;6.75;;;3.92;;
49824;SDS011;35714;55.708;37.478;2023-08-06T02:51:27;6.57;;;4.13;;
49824;SDS011;35714;55.708;37.478;2023-08-06T02:53:53;8.13;;;4.30;;
49824;SDS011;35714;55.708;37.478;2023-08-06T02:56:20;9.55;;;4.22;;
49824;SDS011;35714;55.708;37.478;2023-08-06T02:58:58;6.05;;;3.55;;
49824;SDS011;35714;55.708;37.478;2023-08-06T03:01:37;6.82;;;4.05;;
49824;SDS011;35714;55.708;37.478;2023-08-06T03:04:12;8.27;;;4.10;;
49824;SDS011;35714;55.708;37.478;2023-08-06T03:06:42;8.75;;;3.58;;
49824;SDS011;35714;55.708;37.478;2023-08-06T03:09:08;8.30;;;4.65;;
49824;SDS011;35714;55.708;37.478;2023-08-06T03:11:34;7.85;;;4.13;;
49824;SDS011;35714;55.708;37.478;2023-08-06T03:14:05;9.40;;;5.20;;
49824;SDS011;35714;55.708;37.478;2023-08-06T03:16:31;7.57;;;4.70;;
49824;SDS011;35714;55.708;37.478;2023-08-06T03:18:56;7.60;;;4.22;;
49824;SDS011;35714;55.708;37.478;2023-08-06T03:21:22;9.02;;;4.20;;
49824;SDS011;35714;55.708;37.478;2023-08-06T03:23:48;7.13;;;4.03;;
49824;SDS011;35714;55.708;37.478;2023-08-06T03:26:15;7.63;;;3.72;;
49824;SDS011;35714;55.708;37.478;2023-08-06T03:28:41;11.63;;;4.95;;
49824;SDS011;35714;55.708;37.478;2023-08-06T03:31:06;9.25;;;3.88;;
49824;SDS011;35714;55.708;37.478;2023-08-06T03:33:42;9.25;;;4.10;;
49824;SDS011;35714;55.708;37.478;2023-08-06T03:36:13;10.77;;;4.15;;
49824;SDS011;35714;55.708;37.478;2023-08-06T03:38:38;8.77;;;3.90;;
49824;SDS011;35714;55.708;37.478;2023-08-06T03:41:07;8.85;;;4.10;;
49824;SDS011;35714;55.708;37.478;2023-08-06T03:43:32;9.38;;;4.05;;
49824;SDS011;35714;55.708;37.478;2023-08-06T03:45:59;12.18;;;4.53;;
49824;SDS011;35714;55.708;37.478;2023-08-06T03:48:25;11.57;;;4.47;;
49824;SDS011;35714;55.708;37.478;2023-08-06T03:50:51;13.00;;;5.88;;
49824;SDS011;35714;55.708;37.478;2023-08-06T03:53:17;9.10;;;4.22;;
49824;SDS011;35714;55.708;37.478;2023-08-06T03:55:43;10.63;;;4.30;;
49824;SDS011;35714;55.708;37.478;2023-08-06T03:58:09;9.70;;;4.20;;
49824;SDS011;35714;55.708;37.478;2023-08-06T04:00:34;8.25;;;3.70;;
49824;SDS011;35714;55.708;37.478;2023-08-06T04:03:01;10.15;;;4.13;;
49824;SDS011;35714;55.708;37.478;2023-08-06T04:05:30;7.10;;;4.22;;
49824;SDS011;35714;55.708;37.478;2023-08-06T04:07:58;8.85;;;5.07;;
49824;SDS011;35714;55.708;37.478;2023-08-06T04:10:25;8.10;;;4.03;;
49824;SDS011;35714;55.708;37.478;2023-08-06T04:12:51;8.35;;;5.60;;
49824;SDS011;35714;55.708;37.478;2023-08-06T04:15:16;11.45;;;6.03;;
49824;SDS011;35714;55.708;37.478;2023-08-06T04:17:42;9.82;;;5.80;;
49824;SDS011;35714;55.708;37.478;2023-08-06T04:20:08;8.35;;;4.00;;
49824;SDS011;35714;55.708;37.478;2023-08-06T04:22:34;8.13;;;4.43;;
49824;SDS011;35714;55.708;37.478;2023-08-06T04:24:59;7.00;;;3.92;;
49824;SDS011;35714;55.708;37.478;2023-08-06T04:27:25;7.35;;;3.67;;
49824;SDS011;35714;55.708;37.478;2023-08-06T04:29:51;10.23;;;4.45;;
49824;SDS011;35714;55.708;37.478;2023-08-06T04:32:18;10.70;;;6.15;;
49824;SDS011;35714;55.708;37.478;2023-08-06T04:34:47;10.82;;;5.00;;
49824;SDS011;35714;55.708;37.478;2023-08-06T04:37:14;8.20;;;4.00;;
49824;SDS011;35714;55.708;37.478;2023-08-06T04:39:40;8.27;;;4.38;;
49824;SDS011;35714;55.708;37.478;2023-08-06T04:42:06;9.52;;;3.97;;
49824;SDS011;35714;55.708;37.478;2023-08-06T04:44:32;10.40;;;4.32;;
49824;SDS011;35714;55.708;37.478;2023-08-06T04:46:57;8.40;;;3.70;;
49824;SDS011;35714;55.708;37.478;2023-08-06T04:49:24;9.60;;;5.03;;
49824;SDS011;35714;55.708;37.478;2023-08-06T04:51:50;8.20;;;4.50;;
49824;SDS011;35714;55.708;37.478;2023-08-06T04:54:16;6.78;;;4.03;;
49824;SDS011;35714;55.708;37.478;2023-08-06T04:56:42;10.13;;;4.28;;
49824;SDS011;35714;55.708;37.478;2023-08-06T04:59:08;6.97;;;3.35;;
49824;SDS011;35714;55.708;37.478;2023-08-06T05:01:33;16.00;;;3.70;;
49824;SDS011;35714;55.708;37.478;2023-08-06T05:03:59;7.20;;;3.33;;
49824;SDS011;35714;55.708;37.478;2023-08-06T05:06:25;7.45;;;3.40;;
49824;SDS011;35714;55.708;37.478;2023-08-06T05:08:50;6.32;;;3.25;;
49824;SDS011;35714;55.708;37.478;2023-08-06T05:11:16;5.10;;;2.70;;
49824;SDS011;35714;55.708;37.478;2023-08-06T05:13:42;8.23;;;3.30;;
49824;SDS011;35714;55.708;37.478;2023-08-06T05:16:07;5.80;;;3.63;;
49824;SDS011;35714;55.708;37.478;2023-08-06T05:18:33;11.65;;;6.68;;
49824;SDS011;35714;55.708;37.478;2023-08-06T05:21:00;8.15;;;4.38;;
49824;SDS011;35714;55.708;37.478;2023-08-06T05:23:26;8.13;;;3.75;;
49824;SDS011;35714;55.708;37.478;2023-08-06T05:25:52;6.55;;;3.25;;
49824;SDS011;35714;55.708;37.478;2023-08-06T05:28:17;5.38;;;3.08;;
49824;SDS011;35714;55.708;37.478;2023-08-06T05:30:43;13.30;;;6.63;;
49824;SDS011;35714;55.708;37.478;2023-08-06T05:33:09;9.25;;;6.40;;
49824;SDS011;35714;55.708;37.478;2023-08-06T05:35:34;8.93;;;5.47;;
49824;SDS011;35714;55.708;37.478;2023-08-06T05:38:00;7.45;;;4.07;;
49824;SDS011;35714;55.708;37.478;2023-08-06T05:40:26;9.63;;;5.03;;
49824;SDS011;35714;55.708;37.478;2023-08-06T05:42:53;8.13;;;5.15;;
49824;SDS011;35714;55.708;37.478;2023-08-06T05:45:19;6.97;;;4.28;;
49824;SDS011;35714;55.708;37.478;2023-08-06T05:47:45;8.15;;;3.63;;
49824;SDS011;35714;55.708;37.478;2023-08-06T05:50:10;7.40;;;3.83;;
49824;SDS011;35714;55.708;37.478;2023-08-06T05:52:36;11.05;;;4.82;;
49824;SDS011;35714;55.708;37.478;2023-08-06T05:55:02;12.35;;;4.10;;
49824;SDS011;35714;55.708;37.478;2023-08-06T05:57:29;11.10;;;4.05;;
49824;SDS011;35714;55.708;37.478;2023-08-06T05:59:54;5.68;;;3.47;;
49824;SDS011;35714;55.708;37.478;2023-08-06T06:02:20;5.95;;;3.40;;
49824;SDS011;35714;55.708;37.478;2023-08-06T06:04:46;6.43;;;3.35;;
49824;SDS011;35714;55.708;37.478;2023-08-06T06:07:11;7.63;;;3.28;;
49824;SDS011;35714;55.708;37.478;2023-08-06T06:09:37;6.40;;;3.00;;
49824;SDS011;35714;55.708;37.478;2023-08-06T06:12:05;6.22;;;2.70;;
49824;SDS011;35714;55.708;37.478;2023-08-06T06:14:31;6.32;;;2.88;;
49824;SDS011;35714;55.708;37.478;2023-08-06T06:16:57;6.50;;;3.22;;
49824;SDS011;35714;55.708;37.478;2023-08-06T06:19:22;5.75;;;2.38;;
49824;SDS011;35714;55.708;37.478;2023-08-06T06:21:48;9.48;;;3.38;;
49824;SDS011;35714;55.708;37.478;2023-08-06T06:24:14;7.60;;;3.28;;
49824;SDS011;35714;55.708;37.478;2023-08-06T06:26:39;6.32;;;3.13;;
49824;SDS011;35714;55.708;37.478;2023-08-06T06:29:05;7.15;;;3.17;;
49824;SDS011;35714;55.708;37.478;2023-08-06T06:31:30;5.47;;;2.75;;
49824;SDS011;35714;55.708;37.478;2023-08-06T06:33:56;8.45;;;3.25;;
49824;SDS011;35714;55.708;37.478;2023-08-06T06:36:22;5.72;;;3.08;;
49824;SDS011;35714;55.708;37.478;2023-08-06T06:38:49;8.43;;;3.22;;
49824;SDS011;35714;55.708;37.478;2023-08-06T06:41:14;6.22;;;2.95;;
49824;SDS011;35714;55.708;37.478;2023-08-06T06:43:40;7.85;;;3.28;;
49824;SDS011;35714;55.708;37.478;2023-08-06T06:46:06;6.57;;;3.30;;
49824;SDS011;35714;55.708;37.478;2023-08-06T06:48:32;10.98;;;3.15;;
49824;SDS011;35714;55.708;37.478;2023-08-06T06:50:58;5.82;;;2.97;;
49824;SDS011;35714;55.708;37.478;2023-08-06T06:53:24;8.48;;;3.25;;
49824;SDS011;35714;55.708;37.478;2023-08-06T06:56:00;6.72;;;2.92;;
49824;SDS011;35714;55.708;37.478;2023-08-06T06:58:27;9.35;;;2.83;;
49824;SDS011;35714;55.708;37.478;2023-08-06T07:00:53;7.47;;;3.35;;
49824;SDS011;35714;55.708;37.478;2023-08-06T07:03:19;8.52;;;2.83;;
49824;SDS011;35714;55.708;37.478;2023-08-06T07:05:46;10.10;;;3.38;;
49824;SDS011;35714;55.708;37.478;2023-08-06T07:08:12;9.15;;;2.95;;
49824;SDS011;35714;55.708;37.478;2023-08-06T07:10:40;8.50;;;3.05;;
49824;SDS011;35714;55.708;37.478;2023-08-06T07:13:07;6.60;;;3.13;;
49824;SDS011;35714;55.708;37.478;2023-08-06T07:15:33;7.60;;;3.13;;
49824;SDS011;35714;55.708;37.478;2023-08-06T07:17:58;13.80;;;3.40;;
49824;SDS011;35714;55.708;37.478;2023-08-06T07:20:24;8.70;;;3.00;;
49824;SDS011;35714;55.708;37.478;2023-08-06T07:22:50;8.65;;;3.60;;
49824;SDS011;35714;55.708;37.478;2023-08-06T07:25:16;12.85;;;3.42;;
49824;SDS011;35714;55.708;37.478;2023-08-06T07:27:42;7.47;;;2.58;;
49824;SDS011;35714;55.708;37.478;2023-08-06T07:30:08;6.00;;;2.70;;
49824;SDS011;35714;55.708;37.478;2023-08-06T07:32:34;4.65;;;2.30;;
49824;SDS011;35714;55.708;37.478;2023-08-06T07:35:00;7.20;;;3.20;;
49824;SDS011;35714;55.708;37.478;2023-08-06T07:37:26;7.65;;;3.03;;
49824;SDS011;35714;55.708;37.478;2023-08-06T07:39:55;8.25;;;2.72;;
49824;SDS011;35714;55.708;37.478;2023-08-06T07:42:21;13.15;;;3.33;;
49824;SDS011;35714;55.708;37.478;2023-08-06T07:44:54;6.30;;;3.25;;
49824;SDS011;35714;55.708;37.478;2023-08-06T07:47:21;9.73;;;3.22;;
49824;SDS011;35714;55.708;37.478;2023-08-06T07:49:47;7.90;;;3.00;;
49824;SDS011;35714;55.708;37.478;2023-08-06T07:52:12;8.63;;;2.97;;
49824;SDS011;35714;55.708;37.478;2023-08-06T07:54:38;8.43;;;3.17;;
49824;SDS011;35714;55.708;37.478;2023-08-06T07:57:04;10.88;;;2.97;;
49824;SDS011;35714;55.708;37.478;2023-08-06T07:59:30;5.40;;;3.00;;
49824;SDS011;35714;55.708;37.478;2023-08-06T08:01:56;5.93;;;3.20;;
49824;SDS011;35714;55.708;37.478;2023-08-06T08:04:21;8.23;;;3.22;;
49824;SDS011;35714;55.708;37.478;2023-08-06T08:06:47;6.55;;;2.80;;
49824;SDS011;35714;55.708;37.478;2023-08-06T08:09:13;7.13;;;3.47;;
49824;SDS011;35714;55.708;37.478;2023-08-06T08:11:40;6.32;;;3.55;;
49824;SDS011;35714;55.708;37.478;2023-08-06T08:14:06;6.15;;;3.28;;
49824;SDS011;35714;55.708;37.478;2023-08-06T08:16:32;8.77;;;3.25;;
49824;SDS011;35714;55.708;37.478;2023-08-06T08:18:58;5.80;;;3.05;;
49824;SDS011;35714;55.708;37.478;2023-08-06T08:21:23;8.52;;;3.90;;
49824;SDS011;35714;55.708;37.478;2023-08-06T08:23:50;5.75;;;3.10;;
49824;SDS011;35714;55.708;37.478;2023-08-06T08:26:16;6.28;;;3.28;;
49824;SDS011;35714;55.708;37.478;2023-08-06T08:28:42;8.20;;;3.60;;
49824;SDS011;35714;55.708;37.478;2023-08-06T08:31:08;6.47;;;3.10;;
49824;SDS011;35714;55.708;37.478;2023-08-06T08:33:34;7.28;;;3.25;;
49824;SDS011;35714;55.708;37.478;2023-08-06T08:36:00;6.63;;;3.30;;
49824;SDS011;35714;55.708;37.478;2023-08-06T08:38:26;5.47;;;3.08;;
49824;SDS011;35714;55.708;37.478;2023-08-06T08:40:52;7.07;;;3.33;;
49824;SDS011;35714;55.708;37.478;2023-08-06T08:43:22;8.57;;;3.20;;
49824;SDS011;35714;55.708;37.478;2023-08-06T08:45:52;18.75;;;3.88;;
49824;SDS011;35714;55.708;37.478;2023-08-06T08:48:21;5.18;;;2.90;;
49824;SDS011;35714;55.708;37.478;2023-08-06T08:50:48;6.93;;;3.00;;
49824;SDS011;35714;55.708;37.478;2023-08-06T08:53:15;7.57;;;3.15;;
49824;SDS011;35714;55.708;37.478;2023-08-06T08:55:43;10.60;;;3.03;;
49824;SDS011;35714;55.708;37.478;2023-08-06T08:58:10;8.43;;;2.85;;
49824;SDS011;35714;55.708;37.478;2023-08-06T09:00:36;9.68;;;3.55;;
49824;SDS011;35714;55.708;37.478;2023-08-06T09:03:02;6.63;;;2.80;;
49824;SDS011;35714;55.708;37.478;2023-08-06T09:05:32;5.72;;;3.05;;
49824;SDS011;35714;55.708;37.478;2023-08-06T09:08:01;7.68;;;3.13;;
49824;SDS011;35714;55.708;37.478;2023-08-06T09:10:30;6.65;;;3.45;;
49824;SDS011;35714;55.708;37.478;2023-08-06T09:12:56;6.88;;;2.95;;
49824;SDS011;35714;55.708;37.478;2023-08-06T09:15:26;6.68;;;3.00;;
49824;SDS011;35714;55.708;37.478;2023-08-06T09:17:53;7.38;;;3.33;;
49824;SDS011;35714;55.708;37.478;2023-08-06T09:20:19;5.47;;;3.30;;
49824;SDS011;35714;55.708;37.478;2023-08-06T09:22:45;6.03;;;3.53;;
49824;SDS011;35714;55.708;37.478;2023-08-06T09:25:19;6.32;;;2.95;;
49824;SDS011;35714;55.708;37.478;2023-08-06T09:27:50;9.88;;;2.70;;
49824;SDS011;35714;55.708;37.478;2023-08-06T09:30:33;6.78;;;3.20;;
49824;SDS011;35714;55.708;37.478;2023-08-06T09:33:00;10.77;;;3.40;;
49824;SDS011;35714;55.708;37.478;2023-08-06T09:35:29;6.95;;;3.00;;
49824;SDS011;35714;55.708;37.478;2023-08-06T09:37:56;6.78;;;2.72;;
49824;SDS011;35714;55.708;37.478;2023-08-06T09:40:32;6.35;;;2.72;;
49824;SDS011;35714;55.708;37.478;2023-08-06T09:42:58;6.47;;;4.50;;
49824;SDS011;35714;55.708;37.478;2023-08-06T09:45:30;7.75;;;2.70;;
49824;SDS011;35714;55.708;37.478;2023-08-06T09:47:59;6.03;;;2.40;;
49824;SDS011;35714;55.708;37.478;2023-08-06T09:50:31;6.15;;;3.03;;
49824;SDS011;35714;55.708;37.478;2023-08-06T09:52:59;6.95;;;2.83;;
49824;SDS011;35714;55.708;37.478;2023-08-06T09:55:25;7.75;;;3.08;;
49824;SDS011;35714;55.708;37.478;2023-08-06T09:57:52;6.10;;;2.67;;
49824;SDS011;35714;55.708;37.478;2023-08-06T10:00:19;5.10;;;3.05;;
49824;SDS011;35714;55.708;37.478;2023-08-06T10:02:46;4.45;;;2.75;;
49824;SDS011;35714;55.708;37.478;2023-08-06T10:05:13;8.10;;;3.13;;
49824;SDS011;35714;55.708;37.478;2023-08-06T10:07:40;5.97;;;3.08;;
49824;SDS011;35714;55.708;37.478;2023-08-06T10:10:09;7.20;;;3.00;;
49824;SDS011;35714;55.708;37.478;2023-08-06T10:12:43;15.32;;;4.00;;
49824;SDS011;35714;55.708;37.478;2023-08-06T10:15:14;6.00;;;2.97;;
49824;SDS011;35714;55.708;37.478;2023-08-06T10:17:51;10.90;;;3.60;;
49824;SDS011;35714;55.708;37.478;2023-08-06T10:20:20;4.88;;;2.47;;
49824;SDS011;35714;55.708;37.478;2023-08-06T10:23:01;5.97;;;3.33;;
49824;SDS011;35714;55.708;37.478;2023-08-06T10:25:30;4.47;;;2.85;;
49824;SDS011;35714;55.708;37.478;2023-08-06T10:27:57;6.25;;;3.25;;
49824;SDS011;35714;55.708;37.478;2023-08-06T10:30:33;6.63;;;3.35;;
49824;SDS011;35714;55.708;37.478;2023-08-06T10:33:00;6.80;;;2.88;;
49824;SDS011;35714;55.708;37.478;2023-08-06T10:40:29;8.15;;;3.13;;
49824;SDS011;35714;55.708;37.478;2023-08-06T10:42:58;4.55;;;3.15;;
49824;SDS011;35714;55.708;37.478;2023-08-06T10:45:25;5.85;;;3.17;;
49824;SDS011;35714;55.708;37.478;2023-08-06T10:47:54;4.45;;;3.20;;
49824;SDS011;35714;55.708;37.478;2023-08-06T10:50:21;5.38;;;3.00;;
49824;SDS011;35714;55.708;37.478;2023-08-06T10:52:47;10.65;;;3.20;;
49824;SDS011;35714;55.708;37.478;2023-08-06T10:55:14;8.07;;;3.33;;
49824;SDS011;35714;55.708;37.478;2023-08-06T10:57:47;5.40;;;2.80;;
49824;SDS011;35714;55.708;37.478;2023-08-06T11:00:12;8.98;;;3.40;;
49824;SDS011;35714;55.708;37.478;2023-08-06T11:02:39;4.07;;;2.80;;
49824;SDS011;35714;55.708;37.478;2023-08-06T11:05:05;7.70;;;3.80;;
49824;SDS011;35714;55.708;37.478;2023-08-06T11:07:32;7.07;;;3.33;;
49824;SDS011;35714;55.708;37.478;2023-08-06T11:10:05;6.57;;;3.22;;
49824;SDS011;35714;55.708;37.478;2023-08-06T11:12:36;7.60;;;2.90;;
49824;SDS011;35714;55.708;37.478;2023-08-06T11:15:02;7.20;;;3.40;;
49824;SDS011;35714;55.708;37.478;2023-08-06T11:17:32;4.43;;;2.67;;
49824;SDS011;35714;55.708;37.478;2023-08-06T11:20:00;6.90;;;3.63;;
49824;SDS011;35714;55.708;37.478;2023-08-06T11:22:31;6.05;;;3.22;;
49824;SDS011;35714;55.708;37.478;2023-08-06T11:24:57;6.03;;;2.80;;
49824;SDS011;35714;55.708;37.478;2023-08-06T11:27:23;10.43;;;3.53;;
49824;SDS011;35714;55.708;37.478;2023-08-06T11:29:48;4.68;;;2.92;;
49824;SDS011;35714;55.708;37.478;2023-08-06T11:32:14;4.85;;;3.13;;
49824;SDS011;35714;55.708;37.478;2023-08-06T11:34:39;6.20;;;3.28;;
49824;SDS011;35714;55.708;37.478;2023-08-06T11:37:06;6.13;;;3.25;;
49824;SDS011;35714;55.708;37.478;2023-08-06T11:39:34;5.65;;;2.78;;
49824;SDS011;35714;55.708;37.478;2023-08-06T11:42:02;5.85;;;3.20;;
49824;SDS011;35714;55.708;37.478;2023-08-06T11:44:32;4.72;;;2.88;;
49824;SDS011;35714;55.708;37.478;2023-08-06T11:47:00;5.35;;;2.92;;
49824;SDS011;35714;55.708;37.478;2023-08-06T11:49:47;6.30;;;3.28;;
49824;SDS011;35714;55.708;37.478;2023-08-06T11:52:21;7.38;;;3.20;;
49824;SDS011;35714;55.708;37.478;2023-08-06T11:55:04;5.22;;;3.05;;
49824;SDS011;35714;55.708;37.478;2023-08-06T11:57:36;6.18;;;3.10;;
49824;SDS011;35714;55.708;37.478;2023-08-06T12:02:42;6.43;;;3.15;;
49824;SDS011;35714;55.708;37.478;2023-08-06T12:07:52;5.88;;;3.47;;
49824;SDS011;35714;55.708;37.478;2023-08-06T12:10:21;9.05;;;3.08;;
49824;SDS011;35714;55.708;37.478;2023-08-06T12:12:47;7.75;;;3.08;;
49824;SDS011;35714;55.708;37.478;2023-08-06T12:15:14;5.05;;;3.20;;
49824;SDS011;35714;55.708;37.478;2023-08-06T12:17:40;9.45;;;3.00;;
49824;SDS011;35714;55.708;37.478;2023-08-06T12:20:06;6.47;;;3.45;;
49824;SDS011;35714;55.708;37.478;2023-08-06T12:22:33;7.22;;;4.43;;
49824;SDS011;35714;55.708;37.478;2023-08-06T12:25:05;8.40;;;3.53;;
49824;SDS011;35714;55.708;37.478;2023-08-06T12:27:37;6.43;;;3.00;;
49824;SDS011;35714;55.708;37.478;2023-08-06T12:30:05;5.40;;;3.25;;
49824;SDS011;35714;55.708;37.478;2023-08-06T12:32:35;5.57;;;3.20;;
49824;SDS011;35714;55.708;37.478;2023-08-06T12:35:01;11.02;;;3.40;;
49824;SDS011;35714;55.708;37.478;2023-08-06T12:37:31;5.13;;;2.55;;
49824;SDS011;35714;55.708;37.478;2023-08-06T12:39:57;10.23;;;3.63;;
49824;SDS011;35714;55.708;37.478;2023-08-06T12:42:23;6.50;;;3.15;;
49824;SDS011;35714;55.708;37.478;2023-08-06T12:44:49;4.63;;;2.50;;
49824;SDS011;35714;55.708;37.478;2023-08-06T12:47:16;11.73;;;3.08;;
49824;SDS011;35714;55.708;37.478;2023-08-06T12:49:42;5.18;;;2.70;;
49824;SDS011;35714;55.708;37.478;2023-08-06T12:52:08;7.03;;;3.22;;
49824;SDS011;35714;55.708;37.478;2023-08-06T12:54:35;8.43;;;2.85;;
49824;SDS011;35714;55.708;37.478;2023-08-06T12:57:04;6.38;;;3.08;;
49824;SDS011;35714;55.708;37.478;2023-08-06T12:59:31;4.93;;;2.95;;
49824;SDS011;35714;55.708;37.478;2023-08-06T13:01:58;5.85;;;2.60;;
49824;SDS011;35714;55.708;37.478;2023-08-06T13:04:24;4.35;;;2.70;;
49824;SDS011;35714;55.708;37.478;2023-08-06T13:06:50;5.50;;;2.92;;
49824;SDS011;35714;55.708;37.478;2023-08-06T13:09:16;5.90;;;3.05;;
49824;SDS011;35714;55.708;37.478;2023-08-06T13:11:41;5.85;;;2.92;;
49824;SDS011;35714;55.708;37.478;2023-08-06T13:14:08;5.18;;;3.13;;
49824;SDS011;35714;55.708;37.478;2023-08-06T13:16:36;7.05;;;2.90;;
49824;SDS011;35714;55.708;37.478;2023-08-06T13:19:03;4.50;;;2.92;;
49824;SDS011;35714;55.708;37.478;2023-08-06T13:21:33;9.38;;;3.30;;
49824;SDS011;35714;55.708;37.478;2023-08-06T13:24:03;8.82;;;3.40;;
49824;SDS011;35714;55.708;37.478;2023-08-06T13:26:29;8.32;;;3.00;;
49824;SDS011;35714;55.708;37.478;2023-08-06T13:28:58;6.25;;;2.92;;
49824;SDS011;35714;55.708;37.478;2023-08-06T13:31:25;7.40;;;2.80;;
49824;SDS011;35714;55.708;37.478;2023-08-06T13:33:52;9.43;;;3.70;;
49824;SDS011;35714;55.708;37.478;2023-08-06T13:36:19;4.70;;;2.83;;
49824;SDS011;35714;55.708;37.478;2023-08-06T13:38:45;7.82;;;3.35;;
49824;SDS011;35714;55.708;37.478;2023-08-06T13:41:11;4.85;;;2.53;;
49824;SDS011;35714;55.708;37.478;2023-08-06T13:43:36;6.55;;;3.30;;
49824;SDS011;35714;55.708;37.478;2023-08-06T13:46:02;3.72;;;2.53;;
49824;SDS011;35714;55.708;37.478;2023-08-06T13:48:28;5.65;;;2.88;;
49824;SDS011;35714;55.708;37.478;2023-08-06T13:50:53;5.70;;;2.88;;
49824;SDS011;35714;55.708;37.478;2023-08-06T13:53:19;6.15;;;2.90;;
49824;SDS011;35714;55.708;37.478;2023-08-06T13:55:44;5.97;;;2.95;;
49824;SDS011;35714;55.708;37.478;2023-08-06T13:58:10;8.18;;;3.13;;
49824;SDS011;35714;55.708;37.478;2023-08-06T14:00:36;8.98;;;2.55;;
49824;SDS011;35714;55.708;37.478;2023-08-06T14:03:02;5.70;;;3.08;;
49824;SDS011;35714;55.708;37.478;2023-08-06T14:05:28;6.43;;;2.95;;
49824;SDS011;35714;55.708;37.478;2023-08-06T14:07:53;6.32;;;2.88;;
49824;SDS011;35714;55.708;37.478;2023-08-06T14:10:19;4.20;;;2.78;;
49824;SDS011;35714;55.708;37.478;2023-08-06T14:12:44;5.00;;;2.50;;
49824;SDS011;35714;55.708;37.478;2023-08-06T14:15:10;5.47;;;2.67;;
49824;SDS011;35714;55.708;37.478;2023-08-06T14:17:36;4.65;;;2.58;;
49824;SDS011;35714;55.708;37.478;2023-08-06T14:20:02;7.30;;;3.22;;
49824;SDS011;35714;55.708;37.478;2023-08-06T14:22:30;5.82;;;2.80;;
49824;SDS011;35714;55.708;37.478;2023-08-06T14:24:59;6.32;;;3.20;;
49824;SDS011;35714;55.708;37.478;2023-08-06T14:27:25;9.20;;;3.75;;
49824;SDS011;35714;55.708;37.478;2023-08-06T14:29:51;7.75;;;3.85;;
49824;SDS011;35714;55.708;37.478;2023-08-06T14:32:16;6.50;;;3.90;;
49824;SDS011;35714;55.708;37.478;2023-08-06T14:34:45;7.35;;;3.53;;
49824;SDS011;35714;55.708;37.478;2023-08-06T14:37:11;4.88;;;3.20;;
49824;SDS011;35714;55.708;37.478;2023-08-06T14:39:36;6.43;;;3.10;;
49824;SDS011;35714;55.708;37.478;2023-08-06T14:42:03;7.03;;;3.30;;
49824;SDS011;35714;55.708;37.478;2023-08-06T14:44:29;6.80;;;3.47;;
49824;SDS011;35714;55.708;37.478;2023-08-06T14:46:55;8.30;;;3.38;;
49824;SDS011;35714;55.708;37.478;2023-08-06T14:49:21;4.82;;;3.28;;
49824;SDS011;35714;55.708;37.478;2023-08-06T14:51:47;10.35;;;3.80;;